Time;durP1;ratioP1;P1;durP2;ratioP2;P2;SDS_P1;SDS_P2;PMS_P1;PMS_P2;Temp;Humidity;BMP_temperature;BMP_pressure;BME280_temperature;BME280_humidity;BME280_pressure;Samples;Min_cycle;Max_cycle;Signal;HPM_P1;HPM_P2
2021/07/12 00:02:05;;;;;;;12.30;10.57;;;;;;;18.89;83.26;96882.91;5005890;28;20124;-60
2021/07/12 00:04:31;;;;;;;12.88;10.73;;;;;;;18.95;82.12;96875.56;5007306;28;20476;-59
2021/07/12 00:06:56;;;;;;;12.40;10.93;;;;;;;18.65;82.23;96847.66;5006126;28;20045;-59
2021/07/12 00:09:22;;;;;;;13.15;10.43;;;;;;;18.44;82.75;96834.03;5005836;28;20042;-62
2021/07/12 00:11:47;;;;;;;11.23;10.13;;;;;;;18.74;83.07;96875.97;5005577;28;20038;-59
2021/07/12 00:14:13;;;;;;;14.07;12.02;;;;;;;18.30;82.08;96797.78;5005499;28;20034;-59
2021/07/12 00:16:39;;;;;;;11.13;10.02;;;;;;;18.39;81.90;96814.88;5006995;28;20026;-59
2021/07/12 00:19:04;;;;;;;12.85;11.50;;;;;;;18.65;82.67;96883.38;5005256;28;20042;-60
2021/07/12 00:21:30;;;;;;;14.88;11.45;;;;;;;18.26;82.93;96827.88;5005276;28;20050;-62
2021/07/12 00:23:56;;;;;;;13.07;11.38;;;;;;;18.70;82.61;96875.22;5006871;28;20547;-58
2021/07/12 00:26:21;;;;;;;12.25;10.95;;;;;;;18.63;82.69;96881.00;5005873;28;20479;-59
2021/07/12 00:28:47;;;;;;;14.65;10.77;;;;;;;18.58;82.76;96895.50;5005508;28;20121;-58
2021/07/12 00:31:12;;;;;;;15.32;10.48;;;;;;;18.29;83.28;96843.06;5005008;28;20065;-61
2021/07/12 00:33:39;;;;;;;11.95;10.73;;;;;;;18.58;83.24;96878.66;5007187;28;20129;-60
2021/07/12 00:36:06;;;;;;;11.95;10.43;;;;;;;18.41;83.53;96885.38;5004781;28;20050;-60
2021/07/12 00:38:31;;;;;;;14.20;11.07;;;;;;;17.68;84.57;96769.56;5004881;28;20252;-60
2021/07/12 00:40:57;;;;;;;12.52;11.32;;;;;;;18.36;84.26;96877.41;5004931;28;20029;-59
2021/07/12 00:43:23;;;;;;;11.43;10.32;;;;;;;18.37;84.15;96878.97;5006624;28;20091;-58
2021/07/12 00:45:48;;;;;;;12.43;11.13;;;;;;;17.77;84.41;96795.03;5007000;28;20516;-60
2021/07/12 00:48:14;;;;;;;12.50;11.20;;;;;;;18.01;85.41;96822.69;5006522;28;20259;-60
2021/07/12 00:50:42;;;;;;;13.38;11.73;;;;;;;18.30;84.03;96876.28;5006333;28;20030;-60
2021/07/12 00:53:09;;;;;;;12.90;11.52;;;;;;;18.26;84.02;96872.75;5005151;28;20038;-60
2021/07/12 00:55:41;;;;;;;12.25;10.95;;;;;;;17.84;83.71;96834.97;5007008;28;20030;-60
2021/07/12 00:58:36;;;;;;;12.68;10.98;;;;;;;18.24;84.04;96869.56;5004340;28;20546;-60
2021/07/12 01:01:04;;;;;;;12.20;10.18;;;;;;;18.24;85.33;96869.56;4989014;28;20112;-61
2021/07/12 01:03:29;;;;;;;12.98;11.05;;;;;;;17.77;85.01;96803.44;5006696;28;20342;-60
2021/07/12 01:05:56;;;;;;;13.38;11.85;;;;;;;17.92;84.49;96824.44;5006291;28;20038;-62
2021/07/12 01:08:22;;;;;;;12.40;10.60;;;;;;;18.15;84.51;96882.56;5004398;28;20040;-60
2021/07/12 01:10:59;;;;;;;11.68;10.52;;;;;;;18.21;83.81;96881.63;5004311;28;20049;-60
2021/07/12 01:13:43;;;;;;;13.70;11.70;;;;;;;17.87;85.53;96890.16;5005796;28;20034;-60
2021/07/12 01:16:12;;;;;;;;;;;;;;;17.25;91.39;96886.13;5004925;28;20050;-60
2021/07/12 01:18:44;;;;;;;15.95;14.23;;;;;;;17.36;91.39;96892.38;5005978;28;19917;-62
2021/07/12 01:21:51;;;;;;;15.70;14.00;;;;;;;17.45;91.14;96878.72;5006139;28;20484;-59
2021/07/12 01:24:54;;;;;;;17.58;14.40;;;;;;;17.50;90.92;96883.84;4974082;28;20606;-61
2021/07/12 01:27:57;;;;;;;15.57;13.98;;;;;;;17.54;90.86;96881.78;5004087;28;20136;-60
2021/07/12 01:31:02;;;;;;;152.32;40.58;;;;;;;17.52;90.81;96878.63;5005975;28;20037;-62
2021/07/12 01:33:46;;;;;;;54.97;19.83;;;;;;;17.32;91.73;96830.84;5002947;28;20064;-62
2021/07/12 01:36:21;;;;;;;19.77;13.30;;;;;;;17.75;90.44;96870.31;5003766;28;20046;-66
2021/07/12 01:39:01;;;;;;;12.88;11.40;;;;;;;17.79;88.86;96871.06;5005981;28;20034;-59
2021/07/12 01:41:48;;;;;;;13.30;12.00;;;;;;;17.90;86.88;96885.69;5003828;28;20046;-62
2021/07/12 01:44:35;;;;;;;13.13;11.55;;;;;;;17.86;86.61;96877.34;5003866;28;20026;-62
2021/07/12 01:47:07;;;;;;;13.48;12.07;;;;;;;17.86;87.45;96876.56;5003926;28;20058;-62
2021/07/12 01:49:54;;;;;;;13.93;12.02;;;;;;;17.84;87.01;96881.78;5003726;28;20060;-60
2021/07/12 01:52:42;;;;;;;13.30;11.85;;;;;;;17.83;87.27;96877.41;5003766;28;20053;-58
2021/07/12 01:55:21;;;;;;;15.05;13.35;;;;;;;17.88;86.92;96879.72;5003813;28;20029;-59
2021/07/12 01:58:02;;;;;;;13.18;11.68;;;;;;;17.44;86.20;96812.66;5003674;28;20049;-60
2021/07/12 02:00:29;;;;;;;13.13;11.82;;;;;;;17.83;86.17;96885.81;5003758;28;20046;-60
2021/07/12 02:02:58;;;;;;;14.02;12.55;;;;;;;17.77;87.07;96851.84;5003827;28;20097;-59
2021/07/12 02:05:29;;;;;;;13.50;12.10;;;;;;;17.92;86.80;96880.47;5005204;28;20073;-60
2021/07/12 02:07:56;;;;;;;12.90;11.60;;;;;;;17.97;85.94;96871.59;5003310;28;20473;-60
2021/07/12 02:10:26;;;;;;;13.57;12.18;;;;;;;17.94;86.31;96875.25;5004292;28;20049;-60
2021/07/12 02:12:53;;;;;;;13.20;11.73;;;;;;;17.29;86.43;96791.69;5005690;28;20095;-59
2021/07/12 02:15:20;;;;;;;15.77;12.10;;;;;;;17.63;86.83;96823.25;5003580;28;20025;-59
2021/07/12 02:17:49;;;;;;;16.10;12.50;;;;;;;17.95;86.68;96879.63;5003177;28;20704;-59
2021/07/12 02:20:16;;;;;;;15.45;11.73;;;;;;;17.93;86.53;96887.66;5003047;28;20081;-59
2021/07/12 02:22:43;;;;;;;15.48;12.18;;;;;;;18.02;85.75;96885.13;5003214;28;20046;-59
2021/07/12 02:25:12;;;;;;;15.25;11.73;;;;;;;18.01;84.66;96883.53;5002952;28;20152;-59
2021/07/12 02:27:38;;;;;;;15.02;11.70;;;;;;;17.81;85.74;96879.84;5003416;28;20030;-59
2021/07/12 02:30:06;;;;;;;14.43;12.20;;;;;;;17.85;86.37;96880.56;5003526;28;20405;-60
2021/07/12 02:32:32;;;;;;;12.82;11.52;;;;;;;17.81;86.74;96900.22;5005647;28;20026;-60
2021/07/12 02:34:59;;;;;;;14.13;12.48;;;;;;;17.77;86.09;96895.88;5005153;28;20040;-59
2021/07/12 02:37:26;;;;;;;15.13;12.00;;;;;;;17.20;86.50;96833.41;5002899;28;20046;-59
2021/07/12 02:39:52;;;;;;;13.18;11.80;;;;;;;17.58;86.18;96899.34;5002897;28;20038;-59
2021/07/12 02:42:18;;;;;;;14.40;12.25;;;;;;;17.47;86.88;96893.88;5004470;28;20504;-60
2021/07/12 02:44:48;;;;;;;14.32;11.93;;;;;;;17.33;86.83;96876.41;5004260;28;20447;-61
2021/07/12 02:47:14;;;;;;;13.35;11.95;;;;;;;17.14;87.41;96851.84;5002605;28;20164;-59
2021/07/12 02:49:39;;;;;;;14.45;11.07;;;;;;;17.51;87.05;96893.84;5004478;28;20062;-59
2021/07/12 02:52:25;;;;;;;15.13;12.10;;;;;;;17.42;87.71;96904.72;5004322;28;20053;-59
2021/07/12 02:54:57;;;;;;;13.50;11.40;;;;;;;17.37;87.33;96891.19;5004271;28;20152;-59
2021/07/12 02:57:23;;;;;;;14.68;11.95;;;;;;;16.89;87.72;96828.97;5002692;28;20058;-60
2021/07/12 02:59:48;;;;;;;12.80;11.52;;;;;;;16.88;88.29;96832.97;5002394;28;20040;-60
2021/07/12 03:02:14;;;;;;;14.23;11.98;;;;;;;17.34;87.67;96890.00;5003961;28;20030;-61
2021/07/12 03:04:39;;;;;;;13.68;11.70;;;;;;;17.17;88.70;96870.59;5003933;28;20144;-60
2021/07/12 03:07:17;;;;;;;12.85;11.48;;;;;;;16.96;88.57;96828.88;5003906;28;20123;-59
2021/07/12 03:09:46;;;;;;;13.50;12.10;;;;;;;17.44;88.09;96899.50;5002467;28;20130;-60
2021/07/12 03:12:26;;;;;;;16.20;12.35;;;;;;;17.38;88.24;96896.38;5003952;28;20289;-59
2021/07/12 03:15:07;;;;;;;13.45;12.07;;;;;;;17.07;88.23;96840.75;5004283;28;20056;-60
2021/07/12 03:17:36;;;;;;;15.05;11.80;;;;;;;17.44;88.05;96893.88;5004284;28;20041;-60
2021/07/12 03:20:04;;;;;;;16.63;12.50;;;;;;;17.16;88.52;96849.44;5001953;28;20053;-60
2021/07/12 03:22:30;;;;;;;14.57;11.75;;;;;;;17.07;87.60;96837.94;5003098;28;20030;-60
2021/07/12 03:24:58;;;;;;;14.68;11.90;;;;;;;17.49;87.05;96904.66;5004063;28;20076;-59
2021/07/12 03:27:24;;;;;;;14.00;12.00;;;;;;;17.56;86.95;96902.56;5002200;28;20045;-60
2021/07/12 03:29:51;;;;;;;14.88;12.13;;;;;;;17.52;86.35;96881.41;5002389;28;20068;-59
2021/07/12 03:32:23;;;;;;;17.58;12.52;;;;;;;17.65;86.00;96890.84;5002376;28;20052;-59
2021/07/12 03:34:50;;;;;;;13.18;11.85;;;;;;;17.51;85.92;96877.03;5003996;28;20041;-60
2021/07/12 03:37:17;;;;;;;13.95;11.95;;;;;;;17.37;86.44;96852.00;5002004;28;20130;-61
2021/07/12 03:39:43;;;;;;;12.43;11.10;;;;;;;16.97;86.02;96764.09;5002191;28;20065;-59
2021/07/12 03:42:11;;;;;;;13.15;11.82;;;;;;;17.61;85.57;96853.69;5001844;28;20042;-60
2021/07/12 03:44:39;;;;;;;15.23;11.60;;;;;;;18.03;84.87;96886.72;5004105;28;20113;-59
2021/07/12 03:47:05;;;;;;;15.15;11.45;;;;;;;17.77;84.41;96839.84;5002278;28;20097;-60
2021/07/12 03:49:31;;;;;;;13.32;12.02;;;;;;;17.94;83.99;96847.22;5003701;28;20500;-59
2021/07/12 03:51:57;;;;;;;12.57;11.25;;;;;;;18.05;83.31;96836.66;5003641;28;20296;-60
2021/07/12 03:54:22;;;;;;;15.27;11.27;;;;;;;18.47;82.22;96883.66;5002260;28;20096;-60
2021/07/12 03:56:48;;;;;;;14.65;12.30;;;;;;;18.39;81.69;96837.31;5013312;28;20111;-60
2021/07/12 03:59:13;;;;;;;13.15;11.15;;;;;;;18.48;81.96;96840.34;5002033;28;20496;-62
2021/07/12 04:01:38;;;;;;;17.15;10.95;;;;;;;18.82;81.29;96883.06;5003893;28;20714;-59
2021/07/12 04:04:04;;;;;;;14.50;11.43;;;;;;;18.39;81.20;96820.47;5002396;28;20034;-60
2021/07/12 04:06:30;;;;;;;13.15;11.75;;;;;;;18.46;81.47;96834.41;5003591;28;20033;-59
2021/07/12 04:08:57;;;;;;;12.55;11.25;;;;;;;18.89;81.52;96888.53;5003472;28;20045;-60
2021/07/12 04:11:29;;;;;;;12.55;10.45;;;;;;;18.41;80.78;96784.38;5003332;28;20184;-60
2021/07/12 04:13:54;;;;;;;12.60;11.30;;;;;;;19.23;80.17;96891.91;5001815;28;20037;-59
2021/07/12 04:16:20;;;;;;;13.60;11.40;;;;;;;19.08;79.12;96851.28;5003411;28;20064;-59
2021/07/12 04:18:46;;;;;;;13.27;10.93;;;;;;;19.40;79.28;96890.81;5003218;28;20489;-58
2021/07/12 04:21:13;;;;;;;13.40;11.88;;;;;;;19.55;78.86;96885.69;5002149;28;20054;-58
2021/07/12 04:23:39;;;;;;;13.75;11.45;;;;;;;19.72;78.11;96889.34;5001617;28;20069;-59
2021/07/12 04:26:05;;;;;;;13.80;10.70;;;;;;;19.65;77.50;96884.66;5001635;28;20573;-59
2021/07/12 04:28:30;;;;;;;12.75;11.10;;;;;;;19.86;76.72;96889.03;5003163;28;20675;-60
2021/07/12 04:30:56;;;;;;;17.75;12.27;;;;;;;19.13;76.32;96814.28;5001484;28;20072;-63
2021/07/12 04:33:21;;;;;;;14.48;12.18;;;;;;;20.03;76.67;96899.13;5003190;28;20548;-60
2021/07/12 04:35:49;;;;;;;17.38;12.75;;;;;;;20.12;76.53;96904.94;5005164;28;20096;-60
2021/07/12 04:38:15;;;;;;;16.30;13.23;;;;;;;20.04;76.47;96858.50;5005394;28;20099;-60
2021/07/12 04:40:41;;;;;;;16.23;14.15;;;;;;;20.09;75.87;96829.88;5005242;28;20033;-59
2021/07/12 04:43:07;;;;;;;14.60;13.02;;;;;;;20.55;74.79;96874.59;5004783;28;20033;-60
2021/07/12 04:45:33;;;;;;;16.20;13.18;;;;;;;20.70;73.99;96887.06;5006831;28;20038;-59
2021/07/12 04:47:58;;;;;;;15.18;13.57;;;;;;;20.94;73.53;96896.91;5006804;28;20041;-61
2021/07/12 04:50:24;;;;;;;19.20;13.73;;;;;;;20.72;72.77;96843.16;5007912;28;20045;-59
2021/07/12 04:52:49;;;;;;;15.82;14.13;;;;;;;21.27;72.66;96884.38;5005143;28;20564;-60
2021/07/12 04:55:15;;;;;;;15.90;14.30;;;;;;;20.64;72.28;96781.88;5007010;28;20427;-60
2021/07/12 04:57:40;;;;;;;14.77;13.30;;;;;;;21.18;72.47;96829.91;5004615;28;20073;-60
2021/07/12 05:00:08;;;;;;;15.48;13.98;;;;;;;21.67;71.57;96888.47;5004893;28;20084;-59
2021/07/12 05:02:34;;;;;;;15.07;13.50;;;;;;;21.75;70.32;96891.88;5004868;28;20045;-60
2021/07/12 05:04:59;;;;;;;16.10;14.45;;;;;;;21.52;72.81;96892.94;5004510;28;20037;-60
2021/07/12 05:07:25;;;;;;;15.80;14.15;;;;;;;21.54;72.99;96884.03;5006232;28;20030;-60
2021/07/12 05:09:51;;;;;;;15.63;13.90;;;;;;;21.82;72.26;96878.38;5006078;28;20500;-60
2021/07/12 05:12:19;;;;;;;17.02;13.70;;;;;;;21.91;71.02;96852.31;5004629;28;20080;-60
2021/07/12 05:14:45;;;;;;;15.18;13.68;;;;;;;22.26;69.88;96880.25;5006491;28;20092;-61
2021/07/12 05:17:12;;;;;;;15.75;13.75;;;;;;;22.42;68.54;96880.13;5004237;28;20472;-61
2021/07/12 05:19:38;;;;;;;16.20;14.45;;;;;;;22.21;67.02;96826.38;5004323;28;20045;-61
2021/07/12 05:22:05;;;;;;;15.88;13.00;;;;;;;22.26;66.23;96817.34;5006166;28;20032;-63
2021/07/12 05:24:30;;;;;;;21.45;13.10;;;;;;;22.82;64.60;96882.50;5004450;28;20454;-60
2021/07/12 05:26:56;;;;;;;13.95;12.57;;;;;;;23.03;63.52;96882.53;5003995;28;20688;-60
2021/07/12 05:29:22;;;;;;;15.93;12.57;;;;;;;23.13;62.97;96864.44;5005744;28;20038;-60
2021/07/12 05:31:48;;;;;;;14.18;12.75;;;;;;;23.27;63.55;96863.16;5006253;28;20500;-60
2021/07/12 06:04:14;;;;;;;14.05;12.52;;;;;;;25.52;55.05;96888.16;4997183;28;20364;-65
2021/07/12 06:06:39;;;;;;;13.73;12.32;;;;;;;25.73;53.81;96888.00;5002184;28;20037;-64
2021/07/12 06:09:05;;;;;;;14.00;12.60;;;;;;;25.58;52.47;96838.03;5021676;28;20033;-63
2021/07/12 06:11:30;;;;;;;12.68;11.48;;;;;;;25.99;52.31;96883.53;5022272;28;20041;-61
2021/07/12 06:13:56;;;;;;;14.00;12.50;;;;;;;25.86;53.02;96873.66;5022512;28;20033;-62
2021/07/12 06:16:21;;;;;;;13.65;12.45;;;;;;;25.53;53.91;96872.72;5020911;28;20041;-62
2021/07/12 06:18:47;;;;;;;18.20;13.38;;;;;;;25.86;54.40;96882.16;5023001;28;20049;-61
2021/07/12 06:21:12;;;;;;;15.23;13.70;;;;;;;25.96;55.37;96884.50;5022701;28;20528;-62
2021/07/12 06:23:37;;;;;;;16.77;13.32;;;;;;;25.26;57.37;96881.97;5023111;28;20029;-61
2021/07/12 06:26:03;;;;;;;14.65;13.35;;;;;;;24.68;56.75;96791.34;5024300;28;20033;-61
2021/07/12 06:28:28;;;;;;;14.10;12.63;;;;;;;25.36;56.37;96882.78;5022525;28;20026;-64
2021/07/12 06:30:54;;;;;;;15.07;13.48;;;;;;;25.73;55.57;96875.88;5024257;28;20029;-65
2021/07/12 06:33:21;;;;;;;15.50;13.68;;;;;;;24.56;59.18;96823.41;5024046;28;20029;-63
2021/07/12 06:35:47;;;;;;;15.85;14.40;;;;;;;24.29;59.46;96786.50;5024169;28;20034;-60
2021/07/12 06:38:12;;;;;;;18.08;13.85;;;;;;;25.34;58.25;96871.16;5019115;28;20472;-61
2021/07/12 06:40:38;;;;;;;14.38;13.02;;;;;;;25.59;56.15;96843.25;5002932;28;20425;-61
2021/07/12 06:43:03;;;;;;;15.98;12.98;;;;;;;25.56;55.53;96860.44;5004494;28;20113;-60
2021/07/12 06:45:29;;;;;;;14.02;12.18;;;;;;;24.72;56.19;96768.53;5004426;28;20485;-61
2021/07/12 06:47:54;;;;;;;14.07;12.77;;;;;;;25.60;54.36;96815.66;5004129;28;20029;-59
2021/07/12 06:50:22;;;;;;;12.65;11.52;;;;;;;25.98;53.30;96852.78;5004624;28;20032;-60
2021/07/12 06:52:47;;;;;;;13.57;12.38;;;;;;;26.21;53.53;96869.16;5004218;28;20053;-60
2021/07/12 06:55:13;;;;;;;14.85;12.45;;;;;;;26.53;52.32;96865.56;5003941;28;20038;-63
2021/07/12 06:57:39;;;;;;;13.23;12.00;;;;;;;26.56;51.60;96837.00;5003388;28;20049;-64
2021/07/12 07:00:05;;;;;;;14.25;12.98;;;;;;;26.29;51.40;96783.16;5002279;28;20038;-61
2021/07/12 07:02:31;;;;;;;13.23;11.82;;;;;;;26.39;51.16;96815.94;5003395;28;20049;-63
2021/07/12 07:04:56;;;;;;;12.73;11.60;;;;;;;27.04;50.22;96866.28;5002337;28;20121;-67
2021/07/12 07:07:22;;;;;;;12.48;11.20;;;;;;;27.04;50.31;96859.81;5003953;28;20084;-60
2021/07/12 07:09:47;;;;;;;13.32;11.55;;;;;;;27.14;50.63;96869.88;5004114;28;20038;-62
2021/07/12 07:12:12;;;;;;;13.48;12.27;;;;;;;26.94;50.14;96813.59;5003912;28;20585;-63
2021/07/12 07:14:38;;;;;;;13.13;11.82;;;;;;;27.26;51.11;96866.81;5004261;28;20464;-61
2021/07/12 07:17:04;;;;;;;12.80;11.70;;;;;;;27.63;50.09;96862.38;5002589;28;20135;-60
2021/07/12 07:19:29;;;;;;;12.98;11.80;;;;;;;28.04;49.57;96861.38;5004025;28;20879;-61
2021/07/12 07:21:54;;;;;;;13.90;12.25;;;;;;;27.69;49.49;96786.44;4981242;28;20145;-61
2021/07/12 07:24:21;;;;;;;15.40;12.65;;;;;;;28.18;48.11;96826.41;4976867;28;20434;-65
2021/07/12 07:26:47;;;;;;;13.68;11.77;;;;;;;28.64;47.10;96865.81;4976476;28;20041;-67
2021/07/12 07:29:12;;;;;;;13.25;12.05;;;;;;;28.29;46.28;96805.88;4976156;28;20528;-63
2021/07/12 07:31:38;;;;;;;13.60;12.27;;;;;;;28.93;46.47;96868.56;4976288;28;20121;-64
2021/07/12 07:34:03;;;;;;;12.93;11.82;;;;;;;29.05;45.90;96861.75;4977176;28;20385;-61
2021/07/12 07:36:29;;;;;;;12.32;11.20;;;;;;;29.26;44.54;96864.16;4974196;28;20041;-59
2021/07/12 07:38:54;;;;;;;12.40;11.30;;;;;;;29.18;43.18;96853.69;4974444;28;20129;-60
2021/07/12 07:41:22;;;;;;;13.10;11.88;;;;;;;29.27;42.35;96840.06;4975710;28;20034;-59
2021/07/12 07:43:47;;;;;;;11.20;10.38;;;;;;;29.62;40.83;96859.94;4974214;28;20029;-57
2021/07/12 07:46:13;;;;;;;12.65;11.57;;;;;;;29.68;40.27;96852.25;4975511;28;20030;-63
2021/07/12 07:48:38;;;;;;;10.88;10.07;;;;;;;29.49;41.04;96808.13;4975654;28;20475;-59
2021/07/12 07:51:04;;;;;;;14.13;12.82;;;;;;;29.83;40.73;96864.34;4972696;28;20115;-64
2021/07/12 07:53:29;;;;;;;10.60;9.80;;;;;;;28.50;40.47;96838.13;4975478;28;20493;-65
2021/07/12 07:55:55;;;;;;;15.48;12.73;;;;;;;28.66;40.76;96824.09;4976453;28;20030;-59
2021/07/12 07:58:20;;;;;;;10.98;10.13;;;;;;;29.16;40.50;96856.25;4979543;28;20355;-57
2021/07/12 08:00:46;;;;;;;13.10;11.15;;;;;;;29.40;41.42;96859.69;4982382;28;71732;-59
2021/07/12 08:03:11;;;;;;;11.82;10.80;;;;;;;29.28;40.29;96795.16;4995370;28;20037;-68
2021/07/12 08:05:36;;;;;;;14.77;12.48;;;;;;;29.58;41.45;96853.66;4995176;28;20103;-57
2021/07/12 08:08:02;;;;;;;12.77;11.60;;;;;;;28.63;41.67;96807.22;4996499;28;20069;-66
2021/07/12 08:13:52;;;;;;;11.82;10.65;;;;;;;29.31;41.10;96851.25;5030259;27;20424;-67
2021/07/12 08:16:19;;;;;;;11.88;10.77;;;;;;;29.16;41.31;96839.91;5009583;28;20581;-65
2021/07/12 08:18:45;;;;;;;11.27;10.45;;;;;;;26.83;41.26;96560.34;5011531;28;20134;-58
2021/07/12 08:21:12;;;;;;;16.13;12.75;;;;;;;27.68;42.12;96659.59;5010913;28;20124;-60
2021/07/12 08:23:43;;;;;;;12.05;10.90;;;;;;;29.41;41.18;96846.97;5010893;28;20049;-63
2021/07/12 08:26:11;;;;;;;11.93;10.93;;;;;;;28.97;41.03;96792.16;5005956;28;20478;-66
2021/07/12 08:28:40;;;;;;;13.10;10.70;;;;;;;29.77;39.95;96849.22;5010589;28;20101;-66
2021/07/12 08:31:08;;;;;;;11.93;10.88;;;;;;;29.55;39.40;96848.94;5010672;28;20504;-62
2021/07/12 08:33:35;;;;;;;10.85;9.85;;;;;;;29.41;39.90;96838.41;5011136;28;20057;-68
2021/07/12 08:36:02;;;;;;;12.40;11.25;;;;;;;29.60;39.55;96825.38;5010378;28;20045;-59
2021/07/12 08:38:29;;;;;;;11.32;10.40;;;;;;;30.18;39.12;96844.97;5019820;28;20049;-61
2021/07/12 08:40:56;;;;;;;10.75;9.77;;;;;;;30.35;36.87;96848.03;5038771;28;20049;-63
2021/07/12 08:43:23;;;;;;;12.63;10.57;;;;;;;30.66;36.44;96834.50;5040119;28;20056;-66
2021/07/12 08:45:51;;;;;;;10.07;9.38;;;;;;;30.97;35.56;96841.50;5039827;28;20060;-62
2021/07/12 08:48:18;;;;;;;11.73;10.55;;;;;;;30.62;34.87;96856.84;5039659;28;20072;-69
2021/07/12 08:50:47;;;;;;;12.73;11.52;;;;;;;30.26;35.87;96846.13;5040184;28;20068;-61
2021/07/12 08:53:15;;;;;;;10.48;9.45;;;;;;;30.48;36.39;96840.59;5040031;28;20063;-58
2021/07/12 08:55:44;;;;;;;11.98;10.73;;;;;;;30.38;36.33;96773.44;5039613;28;20068;-65
2021/07/12 08:58:20;;;;;;;10.30;9.60;;;;;;;30.90;35.49;96820.63;5038132;28;20053;-66
2021/07/12 09:00:50;;;;;;;10.68;9.88;;;;;;;30.64;35.25;96814.22;5023548;28;63070;-64
2021/07/12 09:03:20;;;;;;;11.05;10.30;;;;;;;31.37;34.94;96824.84;5019666;28;20060;-61
2021/07/12 09:06:01;;;;;;;10.75;9.95;;;;;;;31.56;33.22;96831.69;5019357;28;20516;-65
2021/07/12 09:08:53;;;;;;;10.32;9.35;;;;;;;31.81;32.41;96830.72;5019775;28;20468;-60
2021/07/12 09:11:29;;;;;;;12.43;11.27;;;;;;;31.91;32.92;96819.81;5019502;28;20053;-63
2021/07/12 09:13:59;;;;;;;11.35;10.43;;;;;;;31.96;33.46;96830.53;5019579;28;20053;-62
2021/07/12 09:16:27;;;;;;;11.85;10.85;;;;;;;32.02;33.16;96829.25;5019332;28;20049;-68
2021/07/12 09:19:35;;;;;;;13.40;12.10;;;;;;;31.49;33.81;96825.66;5019109;28;20076;-59
2021/07/12 09:22:02;;;;;;;16.35;14.75;;;;;;;31.97;33.37;96820.63;5006963;28;20057;-65
2021/07/12 09:24:54;;;;;;;12.95;11.85;;;;;;;31.98;32.71;96822.19;5010012;28;20072;-59
2021/07/12 09:27:27;;;;;;;13.00;11.82;;;;;;;32.28;32.59;96824.03;5006445;28;20054;-62
2021/07/12 09:30:07;;;;;;;11.90;10.90;;;;;;;32.32;33.21;96823.78;5005960;28;20254;-60
2021/07/12 09:32:35;;;;;;;12.27;10.98;;;;;;;32.38;32.81;96818.88;5006226;28;20064;-61
2021/07/12 09:35:12;;;;;;;12.52;11.38;;;;;;;32.54;33.21;96823.81;5005285;28;20240;-60
2021/07/12 09:37:42;;;;;;;11.68;10.63;;;;;;;32.49;32.51;96829.53;5006196;28;20057;-61
2021/07/12 09:40:14;;;;;;;11.45;10.50;;;;;;;32.06;31.62;96725.75;5006000;28;20060;-61
2021/07/12 09:42:44;;;;;;;11.40;10.30;;;;;;;32.80;32.32;96823.53;5005956;28;20535;-61
2021/07/12 09:45:13;;;;;;;13.05;11.77;;;;;;;32.79;32.35;96822.75;5004131;28;20060;-60
2021/07/12 09:47:44;;;;;;;15.10;13.57;;;;;;;33.00;33.00;96824.06;5006143;28;20256;-59
2021/07/12 09:50:16;;;;;;;12.68;11.68;;;;;;;32.14;32.51;96818.56;5006152;28;20046;-60
2021/07/12 09:52:49;;;;;;;13.15;11.10;;;;;;;32.49;33.01;96821.72;5004413;28;20068;-60
2021/07/12 09:55:24;;;;;;;11.65;10.55;;;;;;;32.63;32.38;96820.69;5005895;28;20437;-63
2021/07/12 09:58:12;;;;;;;13.32;12.10;;;;;;;32.95;32.57;96824.84;5004008;28;20553;-61
2021/07/12 10:00:58;;;;;;;12.57;11.38;;;;;;;32.88;32.93;96825.38;5005359;28;20142;-61
2021/07/12 10:03:25;;;;;;;12.18;11.18;;;;;;;31.81;34.53;96824.19;5004024;28;20050;-61
2021/07/12 10:05:54;;;;;;;12.20;11.00;;;;;;;31.26;32.61;96756.03;5005540;28;20042;-61
2021/07/12 10:08:21;;;;;;;12.23;11.23;;;;;;;32.20;33.03;96823.00;5003356;28;20401;-61
2021/07/12 10:10:48;;;;;;;12.50;11.30;;;;;;;31.99;33.73;96795.88;4991359;28;20090;-64
2021/07/12 10:13:15;;;;;;;12.60;11.43;;;;;;;32.39;31.18;96826.16;5004131;28;20066;-62
2021/07/12 10:15:43;;;;;;;11.10;10.07;;;;;;;31.49;31.84;96819.94;5004578;28;20085;-68
2021/07/12 10:18:10;;;;;;;11.65;10.73;;;;;;;31.79;31.82;96775.25;4997899;28;20113;-63
2021/07/12 10:20:37;;;;;;;11.98;10.90;;;;;;;32.62;31.45;96821.19;5005151;28;20531;-61
2021/07/12 10:23:07;;;;;;;13.35;12.00;;;;;;;32.51;31.10;96727.34;5001119;28;20050;-59
2021/07/12 10:25:35;;;;;;;12.45;11.38;;;;;;;31.92;31.47;96609.31;5003264;28;20631;-60
2021/07/12 10:28:07;;;;;;;12.63;11.43;;;;;;;31.48;31.72;96589.25;5005128;28;20521;-60
2021/07/12 10:30:36;;;;;;;12.10;10.90;;;;;;;32.45;32.94;96821.22;5004531;28;20253;-61
2021/07/12 10:33:05;;;;;;;11.80;10.70;;;;;;;32.60;30.75;96783.63;5004352;28;20081;-60
2021/07/12 10:35:38;;;;;;;11.68;10.68;;;;;;;32.72;31.73;96805.28;5001173;28;20053;-68
2021/07/12 10:38:05;;;;;;;11.98;11.07;;;;;;;32.47;32.82;96792.78;4985877;28;20057;-63
2021/07/12 10:40:52;;;;;;;11.95;10.93;;;;;;;32.38;34.01;96793.06;5003478;28;20054;-60
2021/07/12 10:43:42;;;;;;;10.70;9.90;;;;;;;33.06;31.54;96807.59;5000358;28;20079;-60
2021/07/12 10:46:11;;;;;;;11.93;10.77;;;;;;;31.86;33.05;96809.13;4994121;28;20057;-62
2021/07/12 10:48:42;;;;;;;12.63;11.52;;;;;;;32.09;33.50;96810.75;5034448;28;20049;-62
2021/07/12 10:51:32;;;;;;;14.93;13.63;;;;;;;32.00;33.94;96803.16;5002777;28;20045;-68
2021/07/12 10:53:58;;;;;;;11.43;10.63;;;;;;;31.76;33.46;96808.56;5004049;28;20054;-60
2021/07/12 10:56:44;;;;;;;11.90;10.98;;;;;;;31.68;33.40;96810.34;5004228;28;20065;-68
2021/07/12 10:59:34;;;;;;;11.68;10.45;;;;;;;31.40;34.32;96760.00;5001152;28;20046;-61
2021/07/12 11:02:03;;;;;;;12.95;11.63;;;;;;;32.18;32.87;96784.69;5002135;28;20046;-64
2021/07/12 11:04:45;;;;;;;14.18;13.07;;;;;;;32.93;31.76;96809.47;4982355;28;20468;-59
2021/07/12 11:07:14;;;;;;;11.88;10.93;;;;;;;32.48;31.30;96800.09;5016109;28;20142;-60
2021/07/12 11:10:05;;;;;;;12.20;10.98;;;;;;;32.25;31.96;96822.22;5018137;28;20061;-63
2021/07/12 11:12:38;;;;;;;11.25;10.20;;;;;;;33.07;30.53;96809.16;5003600;28;20536;-64
2021/07/12 11:15:17;;;;;;;13.90;12.57;;;;;;;32.74;32.01;96817.78;5003053;28;20076;-58
2021/07/12 11:18:03;;;;;;;11.57;10.48;;;;;;;33.01;29.83;96811.25;5002242;28;20053;-67
2021/07/12 11:20:51;;;;;;;12.75;11.73;;;;;;;33.29;31.66;96819.81;5002970;28;20073;-64
2021/07/12 11:23:41;;;;;;;11.70;10.70;;;;;;;33.11;30.26;96826.91;4984719;28;20058;-65
2021/07/12 11:26:20;;;;;;;10.93;10.02;;;;;;;33.31;29.27;96817.94;4998419;28;20045;-62
2021/07/12 11:28:49;;;;;;;10.85;9.75;;;;;;;32.72;29.30;96714.25;5002905;28;20056;-62
2021/07/12 11:31:48;;;;;;;10.73;9.65;;;;;;;32.63;31.78;96820.69;5001717;28;20054;-66
2021/07/12 11:34:29;;;;;;;11.10;10.18;;;;;;;33.01;30.08;96817.00;5001197;28;20065;-67
2021/07/12 11:37:01;;;;;;;10.55;9.60;;;;;;;33.40;28.87;96797.56;4998969;28;20054;-61
2021/07/12 11:40:11;;;;;;;11.00;10.10;;;;;;;32.87;30.25;96783.59;4996010;28;20527;-64
2021/07/12 11:42:39;;;;;;;9.93;9.13;;;;;;;32.54;29.50;96812.34;5002985;28;20053;-61
2021/07/12 11:45:13;;;;;;;11.43;10.45;;;;;;;31.41;29.88;96526.78;5003417;28;20046;-66
2021/07/12 11:47:43;;;;;;;10.35;9.68;;;;;;;33.31;29.49;96789.22;4992153;28;20128;-67
2021/07/12 11:50:16;;;;;;;10.88;10.10;;;;;;;33.43;30.48;96808.00;5003199;28;20917;-68
2021/07/12 11:52:45;;;;;;;11.02;10.07;;;;;;;33.15;28.06;96729.00;5002633;28;20054;-62
2021/07/12 11:55:39;;;;;;;10.43;9.48;;;;;;;32.27;29.35;96798.75;5002573;28;20049;-63
2021/07/12 11:58:06;;;;;;;;;;;;;;;33.13;28.12;96792.72;4988777;28;20136;-62
2021/07/12 12:00:39;;;;;;;10.20;9.25;;;;;;;32.85;27.42;96789.06;5034683;28;19925;-64
2021/07/12 12:03:08;;;;;;;10.23;9.27;;;;;;;31.76;29.93;96787.72;5016943;28;20050;-64
2021/07/12 12:05:39;;;;;;;11.63;10.80;;;;;;;32.07;31.55;96718.75;5000111;28;20053;-61
2021/07/12 12:08:07;;;;;;;12.38;11.43;;;;;;;32.20;32.38;96753.41;5002785;28;20093;-61